Time;durP1;ratioP1;P1;durP2;ratioP2;P2;SDS_P1;SDS_P2;PMS_P1;PMS_P2;Temp;Humidity;BMP_temperature;BMP_pressure;BME280_temperature;BME280_humidity;BME280_pressure;Samples;Min_cycle;Max_cycle;Signal;HPM_P1;HPM_P2
2022/09/03 00:02:35;;;;;;;4.97;3.70;;;;;;;;;;5054163;28;20028;-41
2022/09/03 00:05:12;;;;;;;4.78;3.28;;;;;;;;;;5054036;28;20025;-41
2022/09/03 00:07:44;;;;;;;4.55;3.65;;;;;;;;;;5054098;28;20032;-41
2022/09/03 00:10:28;;;;;;;6.93;2.97;;;;;;;;;;5052698;28;20044;-41
2022/09/03 00:12:59;;;;;;;3.17;2.88;;;;;;;;;;5053897;28;20025;-42
2022/09/03 00:15:25;;;;;;;3.92;2.92;;;;;;;;;;5054209;28;20107;-41
2022/09/03 00:18:13;;;;;;;3.97;3.30;;;;;;;;;;5053861;28;20024;-41
2022/09/03 00:20:43;;;;;;;4.93;2.88;;;;;;;;;;5052719;28;20075;-41
2022/09/03 00:23:14;;;;;;;5.82;2.30;;;;;;;;;;5053791;28;20029;-42
2022/09/03 00:25:53;;;;;;;4.53;2.63;;;;;;;;;;5053659;28;20415;-41
2022/09/03 00:28:24;;;;;;;6.75;3.88;;;;;;;;;;5053685;28;20547;-41
2022/09/03 00:30:58;;;;;;;2.05;1.95;;;;;;;;;;5052528;28;20032;-41
2022/09/03 00:33:29;;;;;;;4.88;2.70;;;;;;;;;;5052257;28;20107;-41
2022/09/03 00:36:00;;;;;;;4.50;3.22;;;;;;;;;;5052695;28;20029;-41
2022/09/03 00:38:28;;;;;;;5.18;3.60;;;;;;;;;;5053500;28;20377;-41
2022/09/03 00:41:19;;;;;;;7.40;3.38;;;;;;;;;;5053401;28;20029;-41
2022/09/03 00:44:06;;;;;;;4.15;3.00;;;;;;;;;;5053636;28;20385;-41
2022/09/03 00:46:54;;;;;;;3.90;3.50;;;;;;;;;;5052056;28;20033;-41
2022/09/03 00:49:27;;;;;;;4.75;3.55;;;;;;;;;;5053568;28;20025;-41
2022/09/03 00:52:21;;;;;;;4.45;3.30;;;;;;;;;;5053129;28;20078;-43
2022/09/03 00:55:01;;;;;;;4.43;3.67;;;;;;;;;;5053177;28;20025;-41
2022/09/03 00:57:44;;;;;;;4.53;3.25;;;;;;;;;;5053354;28;20047;-41
2022/09/03 01:00:16;;;;;;;5.88;3.88;;;;;;;;;;5053086;28;20029;-41
2022/09/03 01:02:56;;;;;;;4.45;3.30;;;;;;;;;;5053104;28;20396;-41
2022/09/03 01:05:33;;;;;;;4.10;3.15;;;;;;;;;;5053180;28;20029;-41
2022/09/03 01:08:17;;;;;;;3.90;3.50;;;;;;;;;;5053008;28;20060;-41
2022/09/03 01:11:09;;;;;;;7.18;4.65;;;;;;;;;;5052858;28;20037;-41
2022/09/03 01:13:48;;;;;;;4.75;4.15;;;;;;;;;;5052963;28;20106;-41
2022/09/03 01:16:18;;;;;;;5.53;4.03;;;;;;;;;;5052775;28;20047;-41
2022/09/03 01:19:04;;;;;;;3.85;3.50;;;;;;;;;;5052943;28;20029;-41
2022/09/03 01:21:30;;;;;;;4.38;3.58;;;;;;;;;;5051458;28;20037;-41
2022/09/03 01:24:20;;;;;;;5.30;3.80;;;;;;;;;;5052843;28;20056;-41
2022/09/03 01:27:14;;;;;;;5.00;4.10;;;;;;;;;;5052566;28;20472;-41
2022/09/03 01:29:39;;;;;;;4.10;3.70;;;;;;;;;;5052571;28;20032;-41
2022/09/03 01:32:38;;;;;;;4.80;4.05;;;;;;;;;;5052707;28;20021;-41
2022/09/03 01:35:25;;;;;;;4.47;3.92;;;;;;;;;;5052491;28;20033;-41
2022/09/03 01:38:19;;;;;;;4.25;3.80;;;;;;;;;;5052771;28;20470;-41
2022/09/03 01:40:54;;;;;;;8.23;4.10;;;;;;;;;;5052721;28;20031;-41
2022/09/03 01:43:57;;;;;;;6.82;4.00;;;;;;;;;;5052676;28;20017;-41
2022/09/03 01:46:29;;;;;;;6.75;3.42;;;;;;;;;;5051529;28;20037;-42
2022/09/03 01:49:05;;;;;;;3.55;3.25;;;;;;;;;;5052323;28;20028;-43
2022/09/03 01:51:31;;;;;;;5.50;3.20;;;;;;;;;;5052430;28;20032;-43
2022/09/03 01:54:09;;;;;;;3.13;2.78;;;;;;;;;;5052086;28;20131;-41
2022/09/03 01:56:46;;;;;;;4.00;3.50;;;;;;;;;;5052292;28;20541;-41
2022/09/03 01:59:29;;;;;;;2.97;2.70;;;;;;;;;;5052220;28;20048;-41
2022/09/03 02:02:01;;;;;;;5.53;3.33;;;;;;;;;;5052470;28;20428;-41
2022/09/03 02:04:27;;;;;;;4.50;3.47;;;;;;;;;;5052193;28;20029;-41
2022/09/03 02:06:55;;;;;;;6.85;3.83;;;;;;;;;;5052421;28;20032;-41
2022/09/03 02:09:20;;;;;;;9.82;4.10;;;;;;;;;;5052178;28;20032;-41
2022/09/03 02:11:58;;;;;;;4.40;3.53;;;;;;;;;;5052078;28;20452;-41
2022/09/03 02:14:25;;;;;;;8.88;3.65;;;;;;;;;;5052346;28;20126;-41
2022/09/03 02:16:51;;;;;;;4.15;3.20;;;;;;;;;;5052469;28;20029;-41
2022/09/03 02:19:17;;;;;;;5.38;3.35;;;;;;;;;;5052250;28;20100;-41
2022/09/03 02:21:50;;;;;;;3.88;3.47;;;;;;;;;;5052050;28;20024;-41
2022/09/03 02:24:16;;;;;;;4.45;3.47;;;;;;;;;;5052012;28;20025;-41
2022/09/03 02:26:41;;;;;;;4.68;3.53;;;;;;;;;;5051954;28;20091;-41
2022/09/03 02:29:07;;;;;;;7.93;3.65;;;;;;;;;;5051959;28;20039;-41
2022/09/03 02:31:33;;;;;;;5.30;3.53;;;;;;;;;;5051772;28;20036;-42
2022/09/03 02:33:58;;;;;;;5.35;3.45;;;;;;;;;;5051863;28;20021;-41
2022/09/03 02:36:29;;;;;;;5.90;3.80;;;;;;;;;;5051949;28;20036;-41
2022/09/03 02:38:54;;;;;;;10.55;4.03;;;;;;;;;;5052089;28;20017;-41
2022/09/03 02:41:21;;;;;;;3.72;3.33;;;;;;;;;;5051817;28;20376;-41
2022/09/03 02:43:59;;;;;;;7.90;3.85;;;;;;;;;;5052067;28;20408;-41
2022/09/03 02:46:33;;;;;;;9.13;4.18;;;;;;;;;;5052089;28;20464;-41
2022/09/03 02:48:58;;;;;;;4.95;3.70;;;;;;;;;;5052073;28;20354;-41
2022/09/03 02:51:24;;;;;;;6.63;3.70;;;;;;;;;;5051543;28;20071;-41
2022/09/03 02:53:49;;;;;;;8.48;4.45;;;;;;;;;;5051557;28;20091;-41
2022/09/03 02:56:15;;;;;;;6.40;4.22;;;;;;;;;;5051973;28;20033;-41
2022/09/03 02:58:40;;;;;;;4.75;3.90;;;;;;;;;;5052090;28;20434;-41
2022/09/03 03:01:06;;;;;;;4.60;4.00;;;;;;;;;;5055621;28;20082;-41
2022/09/03 03:03:32;;;;;;;4.68;3.50;;;;;;;;;;5055305;28;20465;-41
2022/09/03 03:06:01;;;;;;;6.40;3.70;;;;;;;;;;5055275;28;20354;-40
2022/09/03 03:08:27;;;;;;;6.50;3.83;;;;;;;;;;5055162;28;20032;-41
2022/09/03 03:10:59;;;;;;;5.80;3.40;;;;;;;;;;5055344;28;20036;-42
2022/09/03 03:13:26;;;;;;;4.30;3.15;;;;;;;;;;5055319;28;20103;-41
2022/09/03 03:15:54;;;;;;;5.22;3.65;;;;;;;;;;5055040;28;20489;-41
2022/09/03 03:18:19;;;;;;;3.65;2.97;;;;;;;;;;5055251;28;20036;-42
2022/09/03 03:20:47;;;;;;;5.03;2.90;;;;;;;;;;5055201;28;20021;-40
2022/09/03 03:23:12;;;;;;;3.97;3.30;;;;;;;;;;5053647;28;20484;-41
2022/09/03 03:25:39;;;;;;;8.18;3.45;;;;;;;;;;5055176;28;20036;-41
2022/09/03 03:28:05;;;;;;;5.00;3.72;;;;;;;;;;5054827;28;20025;-41
2022/09/03 03:30:32;;;;;;;5.07;3.85;;;;;;;;;;5055301;28;20036;-41
2022/09/03 03:32:58;;;;;;;4.95;4.10;;;;;;;;;;5054957;28;20032;-41
2022/09/03 03:35:24;;;;;;;6.93;3.55;;;;;;;;;;5054510;28;20067;-41
2022/09/03 03:37:49;;;;;;;5.53;4.10;;;;;;;;;;5054907;28;20116;-41
2022/09/03 03:40:15;;;;;;;5.35;3.67;;;;;;;;;;5054639;28;20032;-41
2022/09/03 03:42:41;;;;;;;8.80;4.60;;;;;;;;;;5054550;28;20520;-41
2022/09/03 03:45:08;;;;;;;7.65;4.57;;;;;;;;;;5054791;28;20384;-41
2022/09/03 03:47:35;;;;;;;6.80;3.80;;;;;;;;;;5054462;28;20032;-41
2022/09/03 03:50:01;;;;;;;8.80;5.25;;;;;;;;;;5054688;28;20025;-41
2022/09/03 03:52:27;;;;;;;8.15;5.07;;;;;;;;;;5054155;28;20049;-41
2022/09/03 03:54:53;;;;;;;6.60;4.20;;;;;;;;;;5054510;28;20071;-41
2022/09/03 03:57:20;;;;;;;6.13;4.35;;;;;;;;;;5054524;28;20409;-42
2022/09/03 03:59:46;;;;;;;7.47;3.65;;;;;;;;;;5054153;28;20060;-41
2022/09/03 04:02:12;;;;;;;6.38;4.53;;;;;;;;;;5054424;28;20188;-41
2022/09/03 04:04:38;;;;;;;9.57;5.55;;;;;;;;;;5054160;28;20029;-41
2022/09/03 04:07:03;;;;;;;7.20;5.00;;;;;;;;;;5054092;28;20033;-41
2022/09/03 04:09:29;;;;;;;7.82;4.88;;;;;;;;;;5054015;28;20377;-41
2022/09/03 04:11:56;;;;;;;7.57;5.15;;;;;;;;;;5054169;28;20068;-41
2022/09/03 04:14:22;;;;;;;6.05;4.10;;;;;;;;;;5054133;28;20033;-41
2022/09/03 04:16:48;;;;;;;6.63;3.72;;;;;;;;;;5054111;28;20021;-41
2022/09/03 04:19:13;;;;;;;4.90;3.35;;;;;;;;;;5053861;28;20021;-41
2022/09/03 04:21:39;;;;;;;4.28;3.72;;;;;;;;;;5053936;28;20040;-41
2022/09/03 04:24:05;;;;;;;5.43;3.60;;;;;;;;;;5053809;28;20028;-41
2022/09/03 04:26:32;;;;;;;4.80;3.97;;;;;;;;;;5053707;28;20095;-41
2022/09/03 04:29:02;;;;;;;7.88;4.20;;;;;;;;;;5053591;28;20033;-41
2022/09/03 04:31:28;;;;;;;6.05;4.40;;;;;;;;;;5053605;28;20115;-41
2022/09/03 04:33:53;;;;;;;6.90;4.38;;;;;;;;;;5053506;28;20029;-41
2022/09/03 04:36:21;;;;;;;8.77;5.13;;;;;;;;;;5053760;28;20037;-41
2022/09/03 04:38:48;;;;;;;7.65;4.22;;;;;;;;;;5053479;28;20020;-41
2022/09/03 04:41:17;;;;;;;10.30;4.63;;;;;;;;;;5053618;28;20044;-41
2022/09/03 04:43:43;;;;;;;13.57;4.18;;;;;;;;;;5053673;28;20033;-41
2022/09/03 04:46:10;;;;;;;11.02;4.30;;;;;;;;;;5053291;28;20043;-41
2022/09/03 04:48:36;;;;;;;9.45;3.42;;;;;;;;;;5053583;28;20423;-42
2022/09/03 04:51:12;;;;;;;7.93;3.72;;;;;;;;;;5053248;28;20028;-41
2022/09/03 04:53:44;;;;;;;8.95;3.63;;;;;;;;;;5051719;28;20500;-41
2022/09/03 04:56:20;;;;;;;8.05;3.95;;;;;;;;;;5053157;28;20475;-41
2022/09/03 04:58:47;;;;;;;10.45;3.40;;;;;;;;;;5053147;28;20024;-41
2022/09/03 05:01:18;;;;;;;6.43;3.70;;;;;;;;;;5053351;28;20503;-42
2022/09/03 05:03:44;;;;;;;4.80;3.35;;;;;;;;;;5053172;28;20025;-41
2022/09/03 05:06:10;;;;;;;11.10;3.30;;;;;;;;;;5053237;28;20028;-41
2022/09/03 05:08:36;;;;;;;17.88;3.85;;;;;;;;;;5053157;28;20024;-41
2022/09/03 05:11:06;;;;;;;6.15;3.63;;;;;;;;;;5052850;28;20041;-41
2022/09/03 05:13:33;;;;;;;6.35;3.25;;;;;;;;;;5052747;28;20033;-41
2022/09/03 05:16:04;;;;;;;11.80;3.47;;;;;;;;;;5053003;28;20036;-41
2022/09/03 05:18:30;;;;;;;4.97;3.30;;;;;;;;;;5052810;28;20377;-42
2022/09/03 05:21:06;;;;;;;6.07;3.28;;;;;;;;;;5052705;28;20031;-41
2022/09/03 05:23:36;;;;;;;4.00;2.92;;;;;;;;;;5052551;28;20389;-42
2022/09/03 05:26:05;;;;;;;10.60;2.92;;;;;;;;;;5052874;28;20044;-42
2022/09/03 05:28:31;;;;;;;10.18;3.10;;;;;;;;;;5052871;28;20128;-43
2022/09/03 05:30:59;;;;;;;12.07;2.75;;;;;;;;;;5052471;28;20087;-45
2022/09/03 05:33:24;;;;;;;9.18;2.95;;;;;;;;;;5052668;28;20367;-44
2022/09/03 05:35:50;;;;;;;7.32;3.00;;;;;;;;;;5052503;28;20031;-42
2022/09/03 05:38:16;;;;;;;3.22;2.85;;;;;;;;;;5052697;28;20070;-43
2022/09/03 05:40:42;;;;;;;8.18;3.13;;;;;;;;;;5051064;28;20078;-42
2022/09/03 05:43:07;;;;;;;5.03;2.92;;;;;;;;;;5052419;28;20408;-42
2022/09/03 05:45:33;;;;;;;4.32;3.28;;;;;;;;;;5052557;28;20017;-42
2022/09/03 05:48:00;;;;;;;3.80;3.08;;;;;;;;;;5052290;28;20052;-42
2022/09/03 05:50:26;;;;;;;6.35;3.92;;;;;;;;;;5052268;28;20024;-42
2022/09/03 05:52:51;;;;;;;5.90;4.18;;;;;;;;;;5051915;28;20041;-42
2022/09/03 05:55:18;;;;;;;5.90;4.80;;;;;;;;;;5052270;28;20033;-42
2022/09/03 05:57:44;;;;;;;7.13;4.60;;;;;;;;;;5052251;28;20025;-43
2022/09/03 06:00:11;;;;;;;6.70;4.53;;;;;;;;;;5050879;28;20025;-42
2022/09/03 06:02:36;;;;;;;7.15;3.85;;;;;;;;;;5052329;28;20108;-42
2022/09/03 06:05:02;;;;;;;4.93;4.05;;;;;;;;;;5052407;28;20052;-45
2022/09/03 06:07:28;;;;;;;7.25;3.55;;;;;;;;;;5052048;28;20162;-43
2022/09/03 06:09:53;;;;;;;3.35;2.92;;;;;;;;;;5052338;28;20059;-42
2022/09/03 06:12:19;;;;;;;3.83;2.88;;;;;;;;;;5052034;28;20393;-44
2022/09/03 06:14:44;;;;;;;3.85;2.80;;;;;;;;;;5052035;28;20436;-43
2022/09/03 06:17:11;;;;;;;3.30;2.92;;;;;;;;;;5050891;28;20036;-43
2022/09/03 06:19:37;;;;;;;6.57;3.03;;;;;;;;;;5052254;28;20031;-43
2022/09/03 06:22:03;;;;;;;3.65;3.00;;;;;;;;;;5051991;28;20033;-43
2022/09/03 06:24:28;;;;;;;4.43;2.90;;;;;;;;;;5052015;28;20025;-43
2022/09/03 06:26:57;;;;;;;3.15;2.85;;;;;;;;;;5051937;28;20025;-42
2022/09/03 06:29:22;;;;;;;3.38;3.00;;;;;;;;;;5052253;28;20567;-43
2022/09/03 06:31:49;;;;;;;4.28;3.30;;;;;;;;;;5051817;28;20112;-42
2022/09/03 06:34:17;;;;;;;3.05;2.67;;;;;;;;;;5052954;28;20424;-43
2022/09/03 06:36:43;;;;;;;4.15;2.70;;;;;;;;;;5055827;28;20043;-42
2022/09/03 06:39:08;;;;;;;3.33;2.90;;;;;;;;;;5055689;28;20118;-43
2022/09/03 06:41:34;;;;;;;4.88;3.00;;;;;;;;;;5055702;28;20017;-43
2022/09/03 06:44:02;;;;;;;5.43;2.72;;;;;;;;;;5054352;28;20021;-44
2022/09/03 06:46:30;;;;;;;6.00;2.95;;;;;;;;;;5055817;28;20025;-43
2022/09/03 06:48:56;;;;;;;3.92;2.60;;;;;;;;;;5055540;28;20116;-44
2022/09/03 06:51:26;;;;;;;2.85;2.30;;;;;;;;;;5055725;28;20107;-44
2022/09/03 06:54:13;;;;;;;3.75;2.50;;;;;;;;;;5055393;28;20452;-44
2022/09/03 06:56:40;;;;;;;3.45;2.42;;;;;;;;;;5055730;28;20499;-43
2022/09/03 06:59:08;;;;;;;3.38;2.83;;;;;;;;;;5055399;28;20056;-43
2022/09/03 07:01:34;;;;;;;5.00;2.58;;;;;;;;;;5055271;28;20381;-43
2022/09/03 07:04:02;;;;;;;3.75;2.70;;;;;;;;;;5055276;28;20025;-44
2022/09/03 07:06:31;;;;;;;5.80;2.72;;;;;;;;;;5054336;28;20044;-44
2022/09/03 07:08:58;;;;;;;9.57;2.42;;;;;;;;;;5055354;28;20467;-44
2022/09/03 07:11:28;;;;;;;3.28;2.28;;;;;;;;;;5055261;28;20155;-43
2022/09/03 07:13:54;;;;;;;4.00;2.30;;;;;;;;;;5055103;28;20036;-43
2022/09/03 07:16:26;;;;;;;3.40;1.83;;;;;;;;;;5055217;28;20037;-44
2022/09/03 07:18:52;;;;;;;3.95;2.40;;;;;;;;;;5055227;28;20064;-44
2022/09/03 07:21:20;;;;;;;2.38;1.83;;;;;;;;;;5054880;28;20017;-45
2022/09/03 07:23:46;;;;;;;3.17;2.30;;;;;;;;;;5055171;28;20056;-44
2022/09/03 07:26:21;;;;;;;2.58;2.20;;;;;;;;;;5054792;28;20485;-45
2022/09/03 07:28:47;;;;;;;4.28;2.47;;;;;;;;;;5054877;28;20114;-45
2022/09/03 07:31:24;;;;;;;4.43;2.17;;;;;;;;;;5054824;28;20050;-44
2022/09/03 07:33:54;;;;;;;2.80;1.90;;;;;;;;;;5054980;28;20025;-46
2022/09/03 07:36:20;;;;;;;;;;;;;;;;;;5055305;28;20021;-45
2022/09/03 07:38:45;;;;;;;4.65;2.53;;;;;;;;;;5054523;28;20448;-45
2022/09/03 07:41:13;;;;;;;5.82;2.33;;;;;;;;;;5054598;28;20029;-44
2022/09/03 07:43:40;;;;;;;4.03;2.47;;;;;;;;;;5054599;28;20028;-43
2022/09/03 07:46:07;;;;;;;4.55;2.33;;;;;;;;;;5054299;28;20040;-43
2022/09/03 07:48:33;;;;;;;3.22;2.72;;;;;;;;;;5054450;28;20120;-43
2022/09/03 07:51:02;;;;;;;4.05;2.55;;;;;;;;;;5054361;28;20138;-42
2022/09/03 07:53:29;;;;;;;2.90;2.58;;;;;;;;;;5054176;28;20041;-42
2022/09/03 07:56:05;;;;;;;4.18;2.75;;;;;;;;;;5054316;28;20480;-42
2022/09/03 07:58:32;;;;;;;2.83;2.53;;;;;;;;;;5054564;28;20078;-42
2022/09/03 08:00:58;;;;;;;6.22;2.85;;;;;;;;;;5054484;28;20025;-45
2022/09/03 08:03:24;;;;;;;3.92;3.40;;;;;;;;;;5054065;28;20025;-43
2022/09/03 08:05:49;;;;;;;6.05;3.63;;;;;;;;;;5054406;28;20115;-42
2022/09/03 08:08:16;;;;;;;3.90;2.75;;;;;;;;;;5054086;28;20025;-47
2022/09/03 08:10:42;;;;;;;5.47;2.35;;;;;;;;;;5054354;28;20040;-43
2022/09/03 08:13:09;;;;;;;4.60;2.80;;;;;;;;;;5053914;28;20033;-44
2022/09/03 08:15:36;;;;;;;6.50;2.45;;;;;;;;;;5053867;28;20476;-45
2022/09/03 08:18:02;;;;;;;4.97;2.55;;;;;;;;;;5054186;28;20021;-49
2022/09/03 08:20:27;;;;;;;3.88;2.42;;;;;;;;;;5054030;28;20491;-45
2022/09/03 08:23:00;;;;;;;5.72;2.47;;;;;;;;;;5053757;28;20498;-44
2022/09/03 08:25:25;;;;;;;3.75;2.67;;;;;;;;;;5054022;28;20024;-44
2022/09/03 08:27:51;;;;;;;3.80;2.75;;;;;;;;;;5053596;28;20445;-42
2022/09/03 08:30:16;;;;;;;7.68;2.70;;;;;;;;;;5053834;28;20036;-42
2022/09/03 08:32:42;;;;;;;5.90;3.15;;;;;;;;;;5053776;28;20033;-46
2022/09/03 08:35:08;;;;;;;3.30;2.85;;;;;;;;;;5053407;28;20385;-44
2022/09/03 08:37:34;;;;;;;3.58;2.97;;;;;;;;;;5053377;28;20076;-45
2022/09/03 08:39:59;;;;;;;7.28;2.83;;;;;;;;;;5053388;28;20031;-45
2022/09/03 08:42:31;;;;;;;3.13;2.50;;;;;;;;;;5053192;28;20036;-45
2022/09/03 08:45:01;;;;;;;8.25;3.17;;;;;;;;;;5053593;28;20052;-44
2022/09/03 08:47:44;;;;;;;6.05;3.45;;;;;;;;;;5053002;28;20526;-45
2022/09/03 08:50:23;;;;;;;4.82;2.80;;;;;;;;;;5053156;28;20032;-45
2022/09/03 08:53:04;;;;;;;4.53;3.50;;;;;;;;;;5052763;28;20140;-43
2022/09/03 08:55:41;;;;;;;5.10;3.65;;;;;;;;;;5053296;28;20060;-43
2022/09/03 08:58:13;;;;;;;6.38;3.45;;;;;;;;;;5052323;28;20025;-43
2022/09/03 09:00:50;;;;;;;5.63;2.92;;;;;;;;;;5053290;28;20029;-44
2022/09/03 09:03:52;;;;;;;4.55;3.13;;;;;;;;;;5053080;28;20040;-43
2022/09/03 09:06:40;;;;;;;4.13;3.03;;;;;;;;;;5053098;28;20436;-46
2022/09/03 09:09:37;;;;;;;6.40;3.05;;;;;;;;;;5053002;28;20104;-44
2022/09/03 09:12:11;;;;;;;7.32;3.50;;;;;;;;;;5052926;28;20024;-44
2022/09/03 09:15:02;;;;;;;4.88;2.85;;;;;;;;;;5052619;28;20032;-44
2022/09/03 09:17:52;;;;;;;5.95;3.03;;;;;;;;;;5052866;28;20416;-43
2022/09/03 09:20:40;;;;;;;4.47;2.80;;;;;;;;;;5052809;28;20029;-47
2022/09/03 09:23:10;;;;;;;5.93;2.65;;;;;;;;;;5052568;28;20025;-44
2022/09/03 09:25:46;;;;;;;7.82;3.00;;;;;;;;;;5052753;28;20025;-45
2022/09/03 09:28:20;;;;;;;8.82;2.53;;;;;;;;;;5052686;28;20049;-46
2022/09/03 09:30:47;;;;;;;4.68;2.63;;;;;;;;;;5052516;28;20052;-47
2022/09/03 09:33:15;;;;;;;6.15;2.90;;;;;;;;;;5052800;28;20028;-45
2022/09/03 09:35:41;;;;;;;3.33;2.58;;;;;;;;;;5052506;28;20480;-45
2022/09/03 09:38:08;;;;;;;3.88;2.50;;;;;;;;;;5051530;28;20036;-44
2022/09/03 09:40:37;;;;;;;3.80;2.65;;;;;;;;;;5052051;28;20059;-48
2022/09/03 09:43:14;;;;;;;3.70;2.92;;;;;;;;;;5048994;28;20497;-45
2022/09/03 09:45:45;;;;;;;6.28;2.20;;;;;;;;;;5051147;28;20067;-44
2022/09/03 09:48:30;;;;;;;4.15;2.80;;;;;;;;;;5051974;28;20025;-45
2022/09/03 09:51:13;;;;;;;4.88;2.53;;;;;;;;;;5052211;28;20017;-47
2022/09/03 09:53:40;;;;;;;5.25;3.13;;;;;;;;;;5051948;28;20055;-43
2022/09/03 09:56:06;;;;;;;5.40;3.08;;;;;;;;;;5052503;28;20479;-44
2022/09/03 09:58:33;;;;;;;5.90;2.65;;;;;;;;;;5052472;28;20025;-45
2022/09/03 10:01:11;;;;;;;4.35;2.83;;;;;;;;;;5052187;28;20384;-47
2022/09/03 10:03:46;;;;;;;4.57;3.40;;;;;;;;;;5052237;28;20028;-44
2022/09/03 10:09:06;;;;;;;5.47;2.85;;;;;;;;;;5054813;28;20040;-44
2022/09/03 10:11:38;;;;;;;4.20;2.30;;;;;;;;;;5055819;28;20056;-46
2022/09/03 10:14:09;;;;;;;5.20;2.90;;;;;;;;;;5056801;28;20063;-43
2022/09/03 10:16:38;;;;;;;3.33;2.80;;;;;;;;;;5056416;28;20450;-44
2022/09/03 10:19:18;;;;;;;3.67;2.38;;;;;;;;;;5055842;28;20029;-51
2022/09/03 10:21:46;;;;;;;6.28;2.42;;;;;;;;;;5056026;28;20473;-51
2022/09/03 10:24:38;;;;;;;3.33;2.65;;;;;;;;;;5055780;28;20480;-44
2022/09/03 10:27:10;;;;;;;4.50;2.17;;;;;;;;;;5056096;28;20056;-51
2022/09/03 10:29:36;;;;;;;7.57;3.22;;;;;;;;;;5056102;28;20044;-43
2022/09/03 10:32:44;;;;;;;2.20;1.92;;;;;;;;;;5055959;28;20028;-46
2022/09/03 10:35:27;;;;;;;4.90;2.72;;;;;;;;;;5046970;28;20037;-46
2022/09/03 10:38:24;;;;;;;6.18;3.10;;;;;;;;;;5054215;28;20025;-45
2022/09/03 10:41:14;;;;;;;3.05;2.75;;;;;;;;;;5037712;28;20475;-45
2022/09/03 10:44:10;;;;;;;7.13;2.97;;;;;;;;;;5054514;28;20079;-50
2022/09/03 10:46:54;;;;;;;2.97;2.58;;;;;;;;;;5055026;28;20044;-45
2022/09/03 10:49:42;;;;;;;4.22;2.65;;;;;;;;;;5054969;28;20033;-46
2022/09/03 10:52:30;;;;;;;2.60;2.40;;;;;;;;;;5055384;28;20111;-48
2022/09/03 10:55:05;;;;;;;3.95;2.75;;;;;;;;;;5055437;28;20520;-48
2022/09/03 10:57:45;;;;;;;5.80;3.10;;;;;;;;;;5055775;28;20029;-47
2022/09/03 11:00:11;;;;;;;;;;;;;;;;;;5056174;28;20443;-48
2022/09/03 11:03:26;;;;;;;5.72;2.85;;;;;;;;;;5054250;28;19913;-47
2022/09/03 11:06:03;;;;;;;4.18;2.50;;;;;;;;;;5055389;28;20107;-45
2022/09/03 11:08:36;;;;;;;3.13;2.35;;;;;;;;;;5055538;28;20036;-47
2022/09/03 11:11:25;;;;;;;6.38;2.72;;;;;;;;;;5055505;28;20029;-45
2022/09/03 11:14:14;;;;;;;5.45;2.38;;;;;;;;;;5055192;28;20051;-48
2022/09/03 11:16:47;;;;;;;7.17;2.73;;;;;;;;;;5054109;28;20434;-46
2022/09/03 11:19:17;;;;;;;5.47;2.72;;;;;;;;;;5054819;28;20357;-45
2022/09/03 11:21:43;;;;;;;3.60;2.55;;;;;;;;;;5054787;28;20431;-46
2022/09/03 11:24:27;;;;;;;2.60;2.40;;;;;;;;;;5055257;28;20087;-45
2022/09/03 11:27:11;;;;;;;4.00;2.47;;;;;;;;;;5054823;28;20036;-45
2022/09/03 11:29:59;;;;;;;6.00;2.70;;;;;;;;;;5055120;28;20025;-49
2022/09/03 11:32:51;;;;;;;2.95;2.22;;;;;;;;;;5055035;28;20111;-45
2022/09/03 11:35:28;;;;;;;3.85;2.58;;;;;;;;;;5054748;28;20036;-48
2022/09/03 11:38:01;;;;;;;3.97;2.67;;;;;;;;;;5054629;28;20516;-44
2022/09/03 11:40:37;;;;;;;5.47;2.80;;;;;;;;;;5054695;28;20067;-48
2022/09/03 11:43:24;;;;;;;3.50;2.58;;;;;;;;;;5054738;28;20028;-48
2022/09/03 11:46:28;;;;;;;6.53;2.80;;;;;;;;;;5054557;28;20420;-49
2022/09/03 11:49:12;;;;;;;2.92;2.30;;;;;;;;;;5053277;28;20076;-46
2022/09/03 11:51:40;;;;;;;4.20;2.50;;;;;;;;;;5054407;28;20044;-48
2022/09/03 11:54:12;;;;;;;4.57;2.80;;;;;;;;;;5054283;28;20037;-49
2022/09/03 11:56:38;;;;;;;4.28;2.58;;;;;;;;;;5054268;28;20029;-45
2022/09/03 11:59:13;;;;;;;2.78;2.58;;;;;;;;;;5054325;28;20021;-45
2022/09/03 12:01:51;;;;;;;3.20;2.30;;;;;;;;;;5054208;28;20032;-47
2022/09/03 12:04:20;;;;;;;3.80;2.45;;;;;;;;;;5054183;28;20171;-48
2022/09/03 12:07:23;;;;;;;2.20;2.00;;;;;;;;;;5054472;28;20028;-49
2022/09/03 12:10:19;;;;;;;13.75;2.60;;;;;;;;;;5054308;28;20033;-49
2022/09/03 12:12:47;;;;;;;3.63;2.25;;;;;;;;;;5053140;28;20116;-47
2022/09/03 12:15:34;;;;;;;5.22;2.33;;;;;;;;;;5054102;28;20040;-45
2022/09/03 12:18:20;;;;;;;5.10;2.30;;;;;;;;;;5054117;28;20028;-44
2022/09/03 12:20:51;;;;;;;4.25;2.30;;;;;;;;;;5054249;28;20028;-47
2022/09/03 12:23:31;;;;;;;7.47;2.30;;;;;;;;;;5054086;28;20116;-43
2022/09/03 12:26:02;;;;;;;2.50;2.08;;;;;;;;;;5053795;28;20036;-45
2022/09/03 12:28:29;;;;;;;3.92;2.30;;;;;;;;;;5054047;28;20039;-44
2022/09/03 12:31:07;;;;;;;3.20;2.17;;;;;;;;;;5053496;28;20021;-47
2022/09/03 12:33:33;;;;;;;2.95;2.30;;;;;;;;;;5053264;28;20108;-44
2022/09/03 12:36:00;;;;;;;4.50;2.60;;;;;;;;;;5053461;28;20536;-46
2022/09/03 12:38:31;;;;;;;4.28;2.20;;;;;;;;;;5053528;28;20385;-46
2022/09/03 12:40:57;;;;;;;4.50;2.30;;;;;;;;;;5051433;28;20036;-46
2022/09/03 12:43:28;;;;;;;4.88;2.17;;;;;;;;;;5051985;28;20029;-47
2022/09/03 12:45:53;;;;;;;2.72;2.33;;;;;;;;;;5052955;28;20420;-45
2022/09/03 12:48:19;;;;;;;2.80;2.38;;;;;;;;;;5053182;28;20104;-48
2022/09/03 12:50:46;;;;;;;4.07;2.30;;;;;;;;;;5053027;28;20074;-46
2022/09/03 12:53:23;;;;;;;4.20;2.38;;;;;;;;;;5051463;28;20048;-47
2022/09/03 12:55:59;;;;;;;4.82;2.53;;;;;;;;;;5053347;28;20424;-44
2022/09/03 12:58:42;;;;;;;2.40;2.20;;;;;;;;;;5053248;28;20029;-45
2022/09/03 13:01:20;;;;;;;4.30;2.35;;;;;;;;;;5051952;28;20500;-46
2022/09/03 13:03:56;;;;;;;4.10;2.40;;;;;;;;;;5053166;28;20071;-46
2022/09/03 13:06:30;;;;;;;6.05;2.63;;;;;;;;;;5053286;28;20032;-47
2022/09/03 13:09:05;;;;;;;3.70;2.10;;;;;;;;;;5053293;28;20028;-46
2022/09/03 13:11:46;;;;;;;6.72;2.67;;;;;;;;;;5052878;28;20518;-47
2022/09/03 13:14:13;;;;;;;3.40;2.35;;;;;;;;;;5052927;28;20029;-48
2022/09/03 13:16:47;;;;;;;8.00;2.42;;;;;;;;;;5052822;28;20025;-44
2022/09/03 13:19:31;;;;;;;3.00;2.70;;;;;;;;;;5053108;28;20037;-45
2022/09/03 13:22:22;;;;;;;2.67;2.35;;;;;;;;;;5052745;28;20086;-44
2022/09/03 13:25:09;;;;;;;4.13;2.42;;;;;;;;;;5052630;28;20117;-45
2022/09/03 13:28:01;;;;;;;4.00;2.10;;;;;;;;;;5052667;28;20194;-47
2022/09/03 13:30:42;;;;;;;4.72;2.60;;;;;;;;;;5052622;28;20021;-48
2022/09/03 13:33:20;;;;;;;7.00;2.30;;;;;;;;;;5052824;28;20079;-44
2022/09/03 13:36:13;;;;;;;2.78;2.13;;;;;;;;;;5052862;28;20108;-49
2022/09/03 13:38:44;;;;;;;2.85;2.20;;;;;;;;;;5049619;28;20036;-48
2022/09/03 13:41:28;;;;;;;3.00;2.35;;;;;;;;;;5052433;28;20031;-46
2022/09/03 13:44:44;;;;;;;3.80;2.38;;;;;;;;;;5052405;28;20029;-46
2022/09/03 13:47:36;;;;;;;2.42;2.10;;;;;;;;;;5043197;28;20134;-44
2022/09/03 13:50:21;;;;;;;3.28;2.47;;;;;;;;;;5052406;28;20083;-47
2022/09/03 13:52:59;;;;;;;2.88;2.38;;;;;;;;;;5052349;28;20057;-48
2022/09/03 13:55:40;;;;;;;3.15;2.30;;;;;;;;;;5052552;28;20437;-49
2022/09/03 13:58:27;;;;;;;4.68;2.15;;;;;;;;;;5052678;28;20029;-45
2022/09/03 14:01:07;;;;;;;2.65;1.85;;;;;;;;;;5052539;28;20035;-47
2022/09/03 14:03:49;;;;;;;2.70;2.17;;;;;;;;;;5052599;28;20040;-46
2022/09/03 14:06:33;;;;;;;2.22;1.95;;;;;;;;;;5051020;28;20095;-45
2022/09/03 14:09:17;;;;;;;5.18;2.20;;;;;;;;;;5052181;28;20033;-49
2022/09/03 14:11:48;;;;;;;4.93;2.40;;;;;;;;;;5052431;28;20366;-45
2022/09/03 14:14:17;;;;;;;5.35;2.35;;;;;;;;;;5052680;28;20032;-48
2022/09/03 14:16:58;;;;;;;4.50;1.95;;;;;;;;;;5052172;28;20039;-46
2022/09/03 14:19:54;;;;;;;2.20;2.03;;;;;;;;;;5052075;28;20049;-48
2022/09/03 14:22:31;;;;;;;3.00;2.58;;;;;;;;;;5051665;28;20095;-49
2022/09/03 14:25:00;;;;;;;2.50;1.85;;;;;;;;;;5052336;28;20021;-44
2022/09/03 14:27:30;;;;;;;2.67;2.30;;;;;;;;;;5052251;28;20502;-46
2022/09/03 14:29:59;;;;;;;4.07;2.78;;;;;;;;;;5051974;28;20036;-45
2022/09/03 14:32:34;;;;;;;4.22;2.63;;;;;;;;;;5052225;28;20468;-45
2022/09/03 14:35:24;;;;;;;3.83;2.30;;;;;;;;;;5051953;28;20071;-44
2022/09/03 14:37:55;;;;;;;2.72;2.50;;;;;;;;;;5051971;28;20029;-48
2022/09/03 14:40:39;;;;;;;3.50;2.28;;;;;;;;;;5052162;28;20025;-45
2022/09/03 14:43:16;;;;;;;6.82;2.63;;;;;;;;;;5051784;28;20035;-49
2022/09/03 14:45:41;;;;;;;4.10;2.30;;;;;;;;;;5052103;28;20369;-46
2022/09/03 14:48:07;;;;;;;4.40;2.38;;;;;;;;;;5052062;28;20036;-46
2022/09/03 14:50:48;;;;;;;3.60;2.20;;;;;;;;;;5051769;28;20082;-43
2022/09/03 14:53:33;;;;;;;2.17;2.00;;;;;;;;;;5051607;28;20439;-46
2022/09/03 14:56:10;;;;;;;3.63;2.00;;;;;;;;;;5053904;28;20583;-45
2022/09/03 14:59:01;;;;;;;2.00;1.90;;;;;;;;;;5055500;28;20020;-45
2022/09/03 15:01:34;;;;;;;3.15;2.17;;;;;;;;;;5055405;28;20025;-46
2022/09/03 15:04:31;;;;;;;2.78;2.05;;;;;;;;;;5055555;28;20033;-45
2022/09/03 15:07:42;;;;;;;5.35;2.38;;;;;;;;;;5055650;28;20120;-46
2022/09/03 15:10:43;;;;;;;3.55;2.22;;;;;;;;;;5046804;28;20033;-46
2022/09/03 15:13:21;;;;;;;2.20;2.00;;;;;;;;;;5055488;28;20029;-46
2022/09/03 15:15:59;;;;;;;2.63;1.88;;;;;;;;;;5055103;28;20022;-46
2022/09/03 15:18:36;;;;;;;3.05;2.10;;;;;;;;;;5055411;28;20029;-46
2022/09/03 15:21:23;;;;;;;2.60;2.05;;;;;;;;;;5053620;28;20082;-45
2022/09/03 15:24:14;;;;;;;4.00;2.20;;;;;;;;;;5055159;28;20029;-47
2022/09/03 15:27:01;;;;;;;3.03;2.00;;;;;;;;;;5055318;28;20036;-45